UUOO/VOZ METAR and TAF weather

Enter ICAO airport designator
Station Type Date Time Source
UUOO METAR 2020/12/05 05:30 UTC NOAA

UUOO 050530Z 11004MPS CAVOK M12/M14 Q1039 R12/190055 NOSIG RMK QFE765


Station Type Date Time Source
UUOO Decoded METAR 2020/12/05 05:30 UTC NOAA

Voronez, Russia (UUOO) 51-39N 039-15E 104M
Dec 05, 2020 - 12:30 AM EST / 2020.12.05 0530 UTC
Wind: from the ESE (110 degrees) at 9 MPH (8 KT):0
Visibility: greater than 7 mile(s):0
Temperature: 10 F (-12 C)
Windchill: -2 F (-19 C):1
Dew Point: 6 F (-14 C)
Relative Humidity: 85%
Pressure (altimeter): 30.68 in. Hg (1039 hPa)
ob: UUOO 050530Z 11004MPS CAVOK M12/M14 Q1039 R12/190055 NOSIG RMK QFE765
cycle: 5

Station Type Date Time Source
UUOO TAF 2019/08/12 03:33 UTC NOAA

TAF COR TAF COR UUOO 120159 1203/1212 31003MPS CAVOK

Example: see airport list